createdAt,value
2023-01-03T00:02:25.044Z,4.22
2023-01-03T00:04:54.132Z,4.18
2023-01-03T00:07:34.840Z,4.68
2023-01-03T00:10:02.707Z,4.70
2023-01-03T00:12:31.293Z,5.68
2023-01-03T00:14:59.552Z,5.40
2023-01-03T00:17:27.642Z,5.65
2023-01-03T00:19:56.836Z,6.20
2023-01-03T00:22:24.626Z,6.55
2023-01-03T00:24:53.390Z,6.43
2023-01-03T00:27:21.088Z,7.65
2023-01-03T00:29:48.705Z,5.60
2023-01-03T00:32:16.585Z,7.18
2023-01-03T00:34:45.304Z,6.75
2023-01-03T00:37:14.672Z,7.53
2023-01-03T00:39:43.745Z,6.57
2023-01-03T00:42:11.413Z,7.32
2023-01-03T00:44:39.299Z,7.03
2023-01-03T00:47:06.946Z,6.88
2023-01-03T00:49:34.591Z,6.00
2023-01-03T00:52:02.332Z,6.63
2023-01-03T00:54:31.346Z,7.57
2023-01-03T00:56:59.010Z,7.78
2023-01-03T00:59:27.055Z,8.68
2023-01-03T01:01:55.599Z,7.80
2023-01-03T01:04:24.824Z,7.40
2023-01-03T01:06:53.743Z,7.45
2023-01-03T01:09:22.436Z,6.65
2023-01-03T01:11:51.702Z,6.90
2023-01-03T01:14:23.157Z,7.80
2023-01-03T01:16:53.194Z,7.20
2023-01-03T01:19:22.208Z,13.70
2023-01-03T01:21:50.226Z,30.80
2023-01-03T01:24:18.455Z,32.08
2023-01-03T01:26:47.859Z,29.85
2023-01-03T01:29:17.148Z,23.75
2023-01-03T01:31:45.396Z,12.77
2023-01-03T01:34:13.369Z,12.70
2023-01-03T01:36:42.244Z,12.77
2023-01-03T01:39:12.127Z,10.48
2023-01-03T01:41:57.669Z,9.82
2023-01-03T01:44:43.707Z,9.50
2023-01-03T01:47:12.848Z,10.40
2023-01-03T01:49:40.613Z,9.10
2023-01-03T01:52:08.550Z,9.82
2023-01-03T01:54:36.180Z,9.95
2023-01-03T01:57:04.515Z,10.77
2023-01-03T01:59:33.011Z,9.50
2023-01-03T02:02:02.252Z,7.75
2023-01-03T02:04:32.047Z,9.88
2023-01-03T02:07:00.030Z,9.13
2023-01-03T02:09:27.708Z,8.68
2023-01-03T02:12:16.702Z,8.45
2023-01-03T02:14:50.591Z,9.32
2023-01-03T02:17:23.368Z,7.95
2023-01-03T02:20:05.923Z,7.97
2023-01-03T02:22:56.400Z,10.25
2023-01-03T02:25:38.969Z,8.50
2023-01-03T02:28:16.331Z,7.30
2023-01-03T02:30:49.536Z,9.10
2023-01-03T02:33:21.943Z,9.95
2023-01-03T02:35:53.970Z,9.75
2023-01-03T02:38:25.804Z,8.55
2023-01-03T02:40:57.070Z,9.80
2023-01-03T02:43:28.751Z,9.15
2023-01-03T02:46:03.133Z,9.80
2023-01-03T02:48:35.253Z,8.88
2023-01-03T02:51:04.071Z,9.65
2023-01-03T02:53:33.355Z,7.80
2023-01-03T02:56:03.090Z,7.70
2023-01-03T02:58:32.843Z,8.80
2023-01-03T03:01:03.515Z,8.02
2023-01-03T03:03:32.888Z,7.57
2023-01-03T03:06:03.207Z,9.00
2023-01-03T03:08:30.879Z,8.45
2023-01-03T03:11:16.092Z,9.95
2023-01-03T03:13:46.560Z,8.80
2023-01-03T03:16:18.384Z,10.00
2023-01-03T03:18:53.237Z,9.15
2023-01-03T03:21:39.189Z,7.82
2023-01-03T03:26:53.223Z,8.20
2023-01-03T03:29:20.064Z,9.00
2023-01-03T03:31:50.295Z,9.65
2023-01-03T03:34:20.016Z,9.95
2023-01-03T03:36:49.560Z,8.68
2023-01-03T03:39:35.251Z,7.90
2023-01-03T03:42:25.836Z,7.93
2023-01-03T03:45:02.035Z,7.88
2023-01-03T03:47:34.547Z,7.60
2023-01-03T03:50:03.368Z,8.68
2023-01-03T03:52:32.944Z,7.97
2023-01-03T03:55:02.751Z,7.72
2023-01-03T03:57:31.738Z,7.47
2023-01-03T04:00:01.412Z,8.52
2023-01-03T04:02:30.655Z,8.80
2023-01-03T04:05:01.984Z,8.68
2023-01-03T04:07:29.687Z,7.85
2023-01-03T04:09:57.494Z,7.45
2023-01-03T04:12:25.564Z,7.75
2023-01-03T04:14:53.296Z,9.38
2023-01-03T04:17:21.143Z,7.68
2023-01-03T04:19:48.871Z,8.73
2023-01-03T04:22:17.889Z,7.35
2023-01-03T04:24:45.671Z,9.43
2023-01-03T04:27:13.509Z,8.23
2023-01-03T04:29:41.299Z,8.40
2023-01-03T04:32:10.092Z,8.60
2023-01-03T04:34:37.944Z,8.55
2023-01-03T04:37:05.612Z,9.38
2023-01-03T04:39:34.759Z,8.55
2023-01-03T04:42:22.593Z,8.57
2023-01-03T04:44:49.398Z,7.85
2023-01-03T04:47:17.037Z,8.30
2023-01-03T04:49:45.621Z,8.00
2023-01-03T04:52:13.335Z,8.00
2023-01-03T04:54:42.543Z,9.43
2023-01-03T04:57:10.613Z,9.63
2023-01-03T04:59:40.951Z,8.93
2023-01-03T05:02:08.769Z,7.63
2023-01-03T05:04:36.676Z,7.57
2023-01-03T05:07:04.366Z,8.38
2023-01-03T05:09:32.054Z,9.77
2023-01-03T05:12:01.093Z,8.35
2023-01-03T05:14:28.756Z,9.40
2023-01-03T05:16:56.494Z,9.88
2023-01-03T05:19:24.228Z,9.68
2023-01-03T05:22:09.119Z,10.18
2023-01-03T05:24:54.514Z,9.80
2023-01-03T05:27:23.731Z,8.98
2023-01-03T05:29:52.865Z,9.18
2023-01-03T05:32:20.773Z,9.38
2023-01-03T05:34:48.612Z,10.63
2023-01-03T05:37:16.450Z,11.18
2023-01-03T05:39:44.259Z,11.80
2023-01-03T05:42:11.976Z,11.40
2023-01-03T05:44:41.045Z,10.77
2023-01-03T05:47:09.338Z,9.95
2023-01-03T05:49:37.099Z,10.95
2023-01-03T05:52:04.993Z,11.80
2023-01-03T05:54:32.620Z,10.30
2023-01-03T05:57:00.251Z,11.93
2023-01-03T05:59:27.959Z,11.02
2023-01-03T06:01:57.121Z,10.98
2023-01-03T06:04:24.936Z,11.27
2023-01-03T06:06:52.811Z,12.82
2023-01-03T06:09:20.469Z,11.55
2023-01-03T06:11:48.179Z,11.32
2023-01-03T06:14:15.851Z,10.75
2023-01-03T06:17:01.195Z,11.48
2023-01-03T06:19:30.330Z,11.90
2023-01-03T06:21:57.964Z,11.40
2023-01-03T06:24:25.657Z,11.23
2023-01-03T06:26:53.322Z,11.57
2023-01-03T06:29:20.944Z,10.48
2023-01-03T06:31:48.662Z,11.40
2023-01-03T06:34:16.320Z,12.57
2023-01-03T06:36:45.378Z,12.38
2023-01-03T06:39:13.267Z,9.93
2023-01-03T06:41:40.989Z,11.93
2023-01-03T06:44:08.864Z,10.93
2023-01-03T06:46:54.047Z,10.15
2023-01-03T06:49:39.496Z,12.88
2023-01-03T06:52:30.089Z,10.65
2023-01-03T06:54:57.822Z,9.85
2023-01-03T06:57:25.891Z,10.30
2023-01-03T06:59:54.984Z,11.57
2023-01-03T07:02:22.776Z,11.63
2023-01-03T07:04:51.063Z,10.73
2023-01-03T07:07:20.140Z,10.57
2023-01-03T07:09:47.793Z,11.25
2023-01-03T07:12:38.028Z,11.15
2023-01-03T07:15:06.434Z,10.10
2023-01-03T07:17:34.109Z,11.75
2023-01-03T07:20:01.797Z,13.30
2023-01-03T07:22:31.086Z,12.27
2023-01-03T07:24:58.740Z,12.80
2023-01-03T07:27:26.426Z,12.40
2023-01-03T07:29:54.090Z,12.88
2023-01-03T07:32:21.728Z,12.25
2023-01-03T07:34:49.465Z,13.18
2023-01-03T07:37:17.123Z,11.30
2023-01-03T07:39:46.278Z,11.63
2023-01-03T07:42:31.313Z,14.32
2023-01-03T07:44:58.965Z,13.97
2023-01-03T07:47:26.708Z,14.55
2023-01-03T07:49:54.530Z,13.02
2023-01-03T07:52:22.197Z,13.45
2023-01-03T07:54:54.453Z,13.23
2023-01-03T07:57:22.162Z,14.95
2023-01-03T07:59:49.825Z,14.18
2023-01-03T08:02:19.311Z,14.00
2023-01-03T08:04:47.077Z,13.63
2023-01-03T08:07:15.032Z,13.95
2023-01-03T08:10:00.372Z,11.52
2023-01-03T08:12:46.997Z,12.82
2023-01-03T08:15:14.993Z,11.23
2023-01-03T08:17:42.613Z,11.00
2023-01-03T08:20:10.623Z,10.77
2023-01-03T08:22:38.276Z,11.07
2023-01-03T08:25:06.413Z,10.02
2023-01-03T08:27:35.577Z,9.13
2023-01-03T08:30:03.208Z,10.52
2023-01-03T08:32:32.143Z,9.88
2023-01-03T08:35:00.116Z,8.82
2023-01-03T08:37:29.067Z,8.77
2023-01-03T08:39:59.941Z,9.35
2023-01-03T08:42:30.457Z,9.15
2023-01-03T08:45:01.274Z,8.65
2023-01-03T08:47:29.663Z,7.47
2023-01-03T08:50:00.396Z,7.43
2023-01-03T08:52:33.225Z,7.15
2023-01-03T08:55:02.846Z,7.63
2023-01-03T08:57:30.539Z,7.65
2023-01-03T08:59:59.684Z,7.72
2023-01-03T09:02:27.452Z,7.55
2023-01-03T09:04:57.508Z,8.30
2023-01-03T09:07:25.164Z,7.57
2023-01-03T09:09:52.913Z,6.57
2023-01-03T09:12:20.577Z,7.40
2023-01-03T09:14:48.237Z,6.68
2023-01-03T09:17:17.278Z,7.30
2023-01-03T09:19:44.960Z,6.55
2023-01-03T09:22:12.679Z,7.13
2023-01-03T09:24:40.324Z,6.45
2023-01-03T09:27:07.980Z,5.70
2023-01-03T09:29:35.664Z,6.30
2023-01-03T09:32:03.663Z,5.43
2023-01-03T09:34:32.897Z,6.25
2023-01-03T09:37:00.546Z,5.75
2023-01-03T09:39:29.021Z,6.03
2023-01-03T09:42:14.477Z,4.88
2023-01-03T09:44:42.176Z,4.70
2023-01-03T09:47:15.427Z,5.72
2023-01-03T09:50:11.608Z,5.20
2023-01-03T09:52:51.165Z,4.97
2023-01-03T09:55:42.696Z,4.85
2023-01-03T09:58:31.002Z,5.25
2023-01-03T10:01:19.460Z,4.28
2023-01-03T10:03:52.339Z,4.68
2023-01-03T10:06:28.728Z,4.35
2023-01-03T10:09:02.950Z,4.07
2023-01-03T10:11:37.063Z,4.35
2023-01-03T10:14:09.887Z,3.65
2023-01-03T10:16:43.291Z,3.83
2023-01-03T10:19:35.129Z,3.33
2023-01-03T10:22:09.963Z,3.28
2023-01-03T10:24:40.657Z,3.08
2023-01-03T10:27:09.063Z,3.00
2023-01-03T10:29:36.842Z,3.45
2023-01-03T10:32:12.362Z,3.38
2023-01-03T10:34:40.115Z,3.35
2023-01-03T10:37:16.805Z,3.55
2023-01-03T10:39:44.476Z,3.30
2023-01-03T10:42:17.513Z,3.03
2023-01-03T10:44:58.106Z,3.35
2023-01-03T10:47:26.503Z,3.40
2023-01-03T10:49:59.212Z,3.05
2023-01-03T10:52:31.403Z,3.08
2023-01-03T10:55:00.790Z,3.28
2023-01-03T10:57:39.387Z,3.33
2023-01-03T11:00:24.626Z,3.20
2023-01-03T11:02:52.496Z,4.35
2023-01-03T11:05:21.427Z,3.10
2023-01-03T11:07:54.548Z,3.70
2023-01-03T11:10:23.174Z,3.70
2023-01-03T11:12:50.940Z,3.60
2023-01-03T11:15:20.257Z,3.67
2023-01-03T11:17:54.818Z,3.10
2023-01-03T11:20:22.872Z,3.37
2023-01-03T11:22:55.718Z,3.88
2023-01-03T11:25:35.604Z,3.30
2023-01-03T11:28:33.077Z,4.35
2023-01-03T11:31:04.982Z,2.70
2023-01-03T11:33:42.775Z,3.08
2023-01-03T11:36:24.715Z,3.08
2023-01-03T11:38:56.758Z,3.30
2023-01-03T11:41:30.875Z,3.47
2023-01-03T11:44:06.404Z,3.40
2023-01-03T11:46:52.212Z,3.00
2023-01-03T11:51:52.083Z,2.83
2023-01-03T11:54:31.139Z,3.67
2023-01-03T11:57:01.398Z,3.80
2023-01-03T11:59:47.076Z,3.53
2023-01-03T12:02:42.041Z,4.20
2023-01-03T12:05:20.683Z,3.05
2023-01-03T12:07:54.678Z,3.03
2023-01-03T12:10:26.718Z,3.28
2023-01-03T12:13:09.473Z,3.67
2023-01-03T12:15:43.085Z,3.63
2023-01-03T12:18:15.351Z,3.53
2023-01-03T12:20:44.854Z,3.25
2023-01-03T12:23:15.900Z,3.58
2023-01-03T12:25:47.836Z,3.30
2023-01-03T12:28:17.881Z,3.20
2023-01-03T12:30:48.527Z,2.80
2023-01-03T12:33:23.444Z,2.88
2023-01-03T12:35:53.925Z,3.05
2023-01-03T12:38:24.611Z,3.95
2023-01-03T12:40:55.858Z,2.78
2023-01-03T12:43:27.671Z,3.67
2023-01-03T12:45:59.201Z,2.78
2023-01-03T12:48:36.520Z,3.63
2023-01-03T12:51:04.207Z,3.50
2023-01-03T12:53:36.072Z,2.65
2023-01-03T12:56:14.863Z,2.42
2023-01-03T12:58:49.436Z,2.47
2023-01-03T13:01:28.134Z,2.53
2023-01-03T13:03:57.210Z,2.58
2023-01-03T13:06:26.655Z,3.28
2023-01-03T13:08:57.606Z,2.75
2023-01-03T13:11:28.115Z,2.70
2023-01-03T13:13:56.874Z,2.80
2023-01-03T13:16:31.713Z,2.97
2023-01-03T13:19:32.983Z,2.63
2023-01-03T13:22:04.445Z,2.20
2023-01-03T13:24:41.994Z,2.60
2023-01-03T13:27:33.367Z,2.80
2023-01-03T13:30:01.009Z,2.30
2023-01-03T13:32:34.579Z,2.60
2023-01-03T13:35:24.077Z,2.67
2023-01-03T13:37:54.244Z,2.78
2023-01-03T13:40:45.107Z,2.72
2023-01-03T13:43:19.849Z,2.55
2023-01-03T13:45:56.375Z,2.38
2023-01-03T13:48:28.020Z,2.67
2023-01-03T13:51:06.858Z,2.90
2023-01-03T13:53:37.966Z,2.85
2023-01-03T13:56:21.290Z,2.90
2023-01-03T13:58:52.558Z,3.03
2023-01-03T14:01:27.000Z,3.38
2023-01-03T14:04:05.567Z,3.47
2023-01-03T14:06:49.160Z,3.80
2023-01-03T14:09:26.820Z,3.28
2023-01-03T14:12:03.660Z,2.35
2023-01-03T14:14:35.855Z,3.22
2023-01-03T14:17:04.460Z,3.03
2023-01-03T14:19:34.071Z,2.75
2023-01-03T14:22:26.518Z,3.10
2023-01-03T14:24:51.860Z,3.53
2023-01-03T14:27:21.617Z,4.63
2023-01-03T14:29:52.104Z,3.28
2023-01-03T14:32:22.253Z,3.03
2023-01-03T14:34:50.363Z,3.45
2023-01-03T14:37:18.889Z,2.88
2023-01-03T14:39:53.018Z,3.30
2023-01-03T14:42:20.809Z,3.13
2023-01-03T14:44:55.755Z,4.18
2023-01-03T14:47:23.769Z,2.92
2023-01-03T14:49:53.233Z,2.58
2023-01-03T14:52:27.470Z,3.40
2023-01-03T14:55:03.475Z,3.00
2023-01-03T14:57:31.909Z,3.85
2023-01-03T15:00:01.633Z,3.38
2023-01-03T15:02:30.980Z,3.10
2023-01-03T15:04:59.414Z,3.50
2023-01-03T15:07:32.393Z,3.55
2023-01-03T15:10:04.566Z,3.03
2023-01-03T15:12:34.112Z,2.78
2023-01-03T15:15:09.205Z,3.53
2023-01-03T15:17:38.473Z,3.63
2023-01-03T15:20:08.388Z,3.25
2023-01-03T15:22:40.286Z,3.38
2023-01-03T15:25:12.402Z,3.20
2023-01-03T15:27:43.039Z,3.22
2023-01-03T15:30:17.572Z,2.72
2023-01-03T15:32:50.574Z,3.53
2023-01-03T15:35:22.751Z,3.53
2023-01-03T15:37:53.503Z,4.25
2023-01-03T15:40:21.548Z,4.05
2023-01-03T15:43:07.077Z,3.85
2023-01-03T15:45:38.985Z,3.83
2023-01-03T15:48:13.661Z,4.70
2023-01-03T15:50:43.921Z,3.50
2023-01-03T15:53:19.761Z,4.40
2023-01-03T15:55:47.951Z,3.92
2023-01-03T15:58:15.681Z,3.47
2023-01-03T16:00:44.802Z,4.05
2023-01-03T16:03:16.996Z,3.03
2023-01-03T16:05:44.789Z,3.33
2023-01-03T16:08:21.725Z,3.83
2023-01-03T16:10:52.491Z,3.75
2023-01-03T16:13:20.490Z,3.20
2023-01-03T16:15:49.614Z,4.10
2023-01-03T16:18:18.839Z,4.22
2023-01-03T16:20:46.602Z,3.47
2023-01-03T16:23:20.344Z,4.13
2023-01-03T16:25:48.058Z,3.15
2023-01-03T16:28:15.710Z,3.13
2023-01-03T16:30:43.449Z,3.35
2023-01-03T16:33:17.007Z,3.00
2023-01-03T16:35:44.676Z,4.63
2023-01-03T16:38:13.761Z,3.58
2023-01-03T16:40:41.808Z,3.60
2023-01-03T16:43:09.449Z,4.07
2023-01-03T16:45:42.081Z,3.80
2023-01-03T16:48:17.727Z,3.65
2023-01-03T16:50:46.578Z,3.55
2023-01-03T16:53:20.514Z,3.80
2023-01-03T16:55:50.842Z,4.88
2023-01-03T16:58:20.558Z,3.55
2023-01-03T17:00:48.506Z,3.45
2023-01-03T17:03:17.782Z,3.20
2023-01-03T17:05:45.831Z,3.55
2023-01-03T17:08:16.839Z,3.15
2023-01-03T17:10:46.821Z,3.60
2023-01-03T17:13:23.074Z,2.53
2023-01-03T17:15:50.949Z,2.97
2023-01-03T17:18:21.146Z,2.70
2023-01-03T17:20:50.072Z,2.55
2023-01-03T17:23:17.982Z,2.92
2023-01-03T17:25:45.639Z,3.28
2023-01-03T17:28:13.319Z,3.13
2023-01-03T17:30:41.619Z,2.78
2023-01-03T17:33:11.485Z,2.38
2023-01-03T17:35:40.740Z,2.55
2023-01-03T17:38:25.645Z,3.33
2023-01-03T17:43:24.338Z,2.63
2023-01-03T17:46:24.174Z,3.28
2023-01-03T17:49:09.591Z,2.50
2023-01-03T17:51:38.872Z,3.60
2023-01-03T17:54:06.605Z,2.80
2023-01-03T17:56:34.220Z,3.33
2023-01-03T17:59:02.157Z,3.03
2023-01-03T18:01:29.908Z,2.65
2023-01-03T18:03:57.691Z,2.80
2023-01-03T18:06:25.756Z,2.40
2023-01-03T18:08:56.500Z,2.92
2023-01-03T18:11:26.348Z,3.38
2023-01-03T18:13:54.195Z,3.33
2023-01-03T18:16:22.925Z,2.90
2023-01-03T18:18:51.199Z,3.22
2023-01-03T18:21:21.555Z,2.72
2023-01-03T18:23:52.061Z,2.92
2023-01-03T18:26:21.226Z,2.33
2023-01-03T18:28:49.166Z,2.15
2023-01-03T18:31:17.697Z,2.47
2023-01-03T18:33:45.566Z,2.42
2023-01-03T18:36:24.636Z,2.35
2023-01-03T18:38:52.608Z,2.67
2023-01-03T18:41:23.555Z,3.13
2023-01-03T18:43:51.229Z,2.88
2023-01-03T18:46:18.992Z,1.88
2023-01-03T18:48:46.741Z,2.40
2023-01-03T18:51:15.528Z,2.40
2023-01-03T18:53:44.239Z,2.65
2023-01-03T18:56:20.698Z,2.72
2023-01-03T18:58:53.342Z,3.25
2023-01-03T19:01:24.362Z,2.60
2023-01-03T19:03:52.183Z,2.78
2023-01-03T19:06:21.193Z,3.38
2023-01-03T19:08:49.254Z,3.47
2023-01-03T19:11:18.201Z,2.58
2023-01-03T19:13:54.928Z,3.05
2023-01-03T19:16:25.379Z,2.60
2023-01-03T19:18:53.417Z,2.42
2023-01-03T19:21:21.922Z,3.35
2023-01-03T19:23:52.613Z,2.25
2023-01-03T19:26:26.511Z,2.40
2023-01-03T19:28:58.781Z,2.53
2023-01-03T19:31:28.815Z,2.10
2023-01-03T19:33:56.549Z,2.08
2023-01-03T19:36:24.594Z,2.55
2023-01-03T19:38:54.867Z,1.92
2023-01-03T19:41:22.808Z,3.20
2023-01-03T19:43:50.955Z,2.17
2023-01-03T19:46:18.864Z,2.03
2023-01-03T19:48:48.138Z,2.17
2023-01-03T19:51:15.813Z,2.55
2023-01-03T19:53:43.463Z,2.55
2023-01-03T19:56:20.093Z,2.00
2023-01-03T19:58:48.023Z,2.15
2023-01-03T20:01:16.922Z,1.73
2023-01-03T20:03:45.260Z,2.45
2023-01-03T20:06:15.430Z,2.50
2023-01-03T20:08:43.071Z,2.53
2023-01-03T20:11:14.274Z,3.20
2023-01-03T20:13:42.004Z,2.90
2023-01-03T20:16:11.180Z,2.38
2023-01-03T20:18:41.328Z,2.47
2023-01-03T20:21:16.665Z,2.13
2023-01-03T20:23:53.228Z,2.60
2023-01-03T20:26:23.714Z,2.33
2023-01-03T20:28:52.183Z,2.20
2023-01-03T20:31:20.750Z,2.40
2023-01-03T20:33:49.214Z,2.55
2023-01-03T20:36:23.075Z,2.03
2023-01-03T20:38:55.732Z,2.10
2023-01-03T20:41:36.331Z,2.05
2023-01-03T20:44:04.755Z,2.42
2023-01-03T20:46:32.485Z,2.05
2023-01-03T20:49:01.901Z,3.00
2023-01-03T20:51:29.939Z,2.40
2023-01-03T20:53:58.970Z,1.95
2023-01-03T20:56:27.139Z,2.50
2023-01-03T20:58:54.838Z,2.72
2023-01-03T21:01:22.817Z,2.03
2023-01-03T21:03:50.637Z,1.85
2023-01-03T21:06:20.161Z,2.10
2023-01-03T21:08:58.081Z,2.33
2023-01-03T21:11:28.178Z,3.00
2023-01-03T21:13:56.214Z,2.17
2023-01-03T21:16:28.677Z,2.78
2023-01-03T21:18:56.708Z,2.33
2023-01-03T21:21:24.782Z,2.58
2023-01-03T21:23:54.231Z,2.45
2023-01-03T21:26:22.346Z,2.58
2023-01-03T21:28:51.364Z,1.83
2023-01-03T21:31:19.868Z,2.33
2023-01-03T21:33:47.905Z,2.60
2023-01-03T21:36:19.331Z,2.45
2023-01-03T21:38:51.005Z,2.15
2023-01-03T21:41:19.464Z,2.25
2023-01-03T21:43:47.095Z,3.15
2023-01-03T21:46:20.098Z,2.60
2023-01-03T21:48:50.242Z,2.88
2023-01-03T21:51:27.442Z,3.00
2023-01-03T21:54:02.985Z,2.25
2023-01-03T21:56:30.650Z,2.95
2023-01-03T21:58:58.293Z,2.20
2023-01-03T22:01:27.420Z,2.50
2023-01-03T22:04:12.510Z,2.50
2023-01-03T22:06:40.257Z,2.70
2023-01-03T22:09:27.956Z,2.65
2023-01-03T22:11:55.839Z,2.20
2023-01-03T22:14:23.611Z,3.00
2023-01-03T22:16:52.772Z,2.72
2023-01-03T22:19:20.472Z,2.67
2023-01-03T22:21:48.275Z,2.58
2023-01-03T22:24:16.228Z,2.70
2023-01-03T22:26:44.009Z,2.38
2023-01-03T22:29:12.455Z,2.72
2023-01-03T22:31:40.155Z,2.72
2023-01-03T22:34:09.205Z,3.38
2023-01-03T22:36:36.860Z,2.55
2023-01-03T22:39:04.677Z,3.17
2023-01-03T22:41:32.297Z,3.05
2023-01-03T22:43:59.978Z,2.85
2023-01-03T22:46:27.747Z,3.08
2023-01-03T22:48:56.541Z,2.92
2023-01-03T22:51:25.571Z,3.10
2023-01-03T22:53:53.358Z,3.40
2023-01-03T22:56:21.250Z,2.85
2023-01-03T22:58:48.921Z,3.22
2023-01-03T23:01:18.006Z,2.65
2023-01-03T23:03:47.962Z,2.85
2023-01-03T23:06:17.333Z,3.80
2023-01-03T23:08:51.251Z,2.17
2023-01-03T23:11:39.493Z,3.13
2023-01-03T23:14:07.831Z,2.55
2023-01-03T23:16:35.819Z,2.53
2023-01-03T23:19:03.964Z,2.40
2023-01-03T23:21:31.601Z,2.95
2023-01-03T23:24:00.704Z,2.40
2023-01-03T23:26:28.422Z,2.88
2023-01-03T23:28:56.152Z,3.22
2023-01-03T23:31:24.752Z,2.67
2023-01-03T23:33:52.523Z,3.00
2023-01-03T23:36:20.180Z,2.35
2023-01-03T23:38:47.864Z,2.83
2023-01-03T23:41:17.646Z,3.00
2023-01-03T23:43:45.325Z,2.55
2023-01-03T23:46:15.487Z,2.58
2023-01-03T23:48:43.199Z,2.67
2023-01-03T23:51:13.150Z,2.97
2023-01-03T23:53:41.668Z,2.13
2023-01-03T23:56:10.558Z,3.30
2023-01-03T23:58:39.724Z,2.13
